createdAt,value
2019-06-27T00:00:42.472Z,7.72
2019-06-27T00:03:09.894Z,7.55
2019-06-27T00:05:37.190Z,7.95
2019-06-27T00:08:04.517Z,7.05
2019-06-27T00:10:34.227Z,8.43
2019-06-27T00:13:00.840Z,7.10
2019-06-27T00:15:28.156Z,8.43
2019-06-27T00:17:55.485Z,8.18
2019-06-27T00:20:22.808Z,8.20
2019-06-27T00:22:50.118Z,8.28
2019-06-27T00:25:17.416Z,7.78
2019-06-27T00:27:44.809Z,8.70
2019-06-27T00:30:12.188Z,8.13
2019-06-27T00:32:39.511Z,8.05
2019-06-27T00:35:06.953Z,7.80
2019-06-27T00:37:34.268Z,8.88
2019-06-27T00:40:01.571Z,8.15
2019-06-27T00:42:28.888Z,8.80
2019-06-27T00:44:56.198Z,8.55
2019-06-27T00:47:23.533Z,8.08
2019-06-27T00:49:50.904Z,8.60
2019-06-27T00:52:18.224Z,8.75
2019-06-27T00:54:45.526Z,8.00
2019-06-27T00:57:14.320Z,8.23
2019-06-27T00:59:41.795Z,8.18
2019-06-27T01:02:09.100Z,7.53
2019-06-27T01:04:36.468Z,8.80
2019-06-27T01:07:03.778Z,8.83
2019-06-27T01:09:31.116Z,8.63
2019-06-27T01:11:58.459Z,8.58
2019-06-27T01:14:25.836Z,9.23
2019-06-27T01:16:53.138Z,8.53
2019-06-27T01:19:20.464Z,9.23
2019-06-27T01:21:47.768Z,8.53
2019-06-27T01:24:15.105Z,9.03
2019-06-27T01:26:42.416Z,8.08
2019-06-27T01:29:09.738Z,8.33
2019-06-27T01:31:37.056Z,8.53
2019-06-27T01:34:04.380Z,8.65
2019-06-27T01:36:31.713Z,8.75
2019-06-27T01:38:59.040Z,8.73
2019-06-27T01:41:26.318Z,8.45
2019-06-27T01:43:53.655Z,9.15
2019-06-27T01:46:20.961Z,8.55
2019-06-27T01:48:48.295Z,8.33
2019-06-27T01:51:15.582Z,9.98
2019-06-27T01:53:42.927Z,8.78
2019-06-27T01:56:10.224Z,8.85
2019-06-27T01:58:37.550Z,8.78
2019-06-27T02:01:04.852Z,8.75
2019-06-27T02:03:32.194Z,7.80
2019-06-27T02:05:59.498Z,8.45
2019-06-27T02:08:26.816Z,9.08
2019-06-27T02:10:54.154Z,9.43
2019-06-27T02:13:21.492Z,10.00
2019-06-27T02:15:48.816Z,8.90
2019-06-27T02:18:16.174Z,8.80
2019-06-27T02:20:43.480Z,8.90
2019-06-27T02:23:10.808Z,9.05
2019-06-27T02:25:38.122Z,8.95
2019-06-27T02:28:05.454Z,9.10
2019-06-27T02:30:42.305Z,8.50
2019-06-27T02:33:09.644Z,8.98
2019-06-27T02:35:37.069Z,8.78
2019-06-27T02:38:04.459Z,10.20
2019-06-27T02:40:31.780Z,9.00
2019-06-27T02:42:59.108Z,8.80
2019-06-27T02:45:26.424Z,9.43
2019-06-27T02:47:53.746Z,9.23
2019-06-27T02:50:21.074Z,9.35
2019-06-27T02:52:48.386Z,9.63
2019-06-27T02:55:15.706Z,9.38
2019-06-27T02:57:43.043Z,10.15
2019-06-27T03:00:10.387Z,10.78
2019-06-27T03:02:37.704Z,10.15
2019-06-27T03:05:07.869Z,10.58
2019-06-27T03:07:35.184Z,10.25
2019-06-27T03:10:03.012Z,9.70
2019-06-27T03:12:30.328Z,11.10
2019-06-27T03:14:57.666Z,10.23
2019-06-27T03:17:24.979Z,9.95
2019-06-27T03:19:52.302Z,10.63
2019-06-27T03:22:19.648Z,10.40
2019-06-27T03:24:46.948Z,10.95
2019-06-27T03:27:14.261Z,10.58
2019-06-27T03:29:41.603Z,9.83
2019-06-27T03:32:08.911Z,11.55
2019-06-27T03:34:36.248Z,10.18
2019-06-27T03:37:03.561Z,9.45
2019-06-27T03:39:30.895Z,11.35
2019-06-27T03:41:58.224Z,10.08
2019-06-27T03:44:25.568Z,10.72
2019-06-27T03:46:52.870Z,11.45
2019-06-27T03:49:20.219Z,10.13
2019-06-27T03:51:47.517Z,11.88
2019-06-27T03:54:14.846Z,11.70
2019-06-27T03:56:42.163Z,11.95
2019-06-27T03:59:13.184Z,11.10
2019-06-27T04:01:38.527Z,11.08
2019-06-27T04:04:05.807Z,10.72
2019-06-27T04:06:33.113Z,11.85
2019-06-27T04:09:00.421Z,11.35
2019-06-27T04:11:27.789Z,11.68
2019-06-27T04:13:55.116Z,10.68
2019-06-27T04:16:22.462Z,11.40
2019-06-27T04:18:49.790Z,11.55
2019-06-27T04:21:17.138Z,11.33
2019-06-27T04:23:44.449Z,11.75
2019-06-27T04:26:11.792Z,11.75
2019-06-27T04:28:39.128Z,12.18
2019-06-27T04:31:06.459Z,12.25
2019-06-27T04:33:33.777Z,12.88
2019-06-27T04:36:01.142Z,11.80
2019-06-27T04:38:28.444Z,12.63
2019-06-27T04:40:55.828Z,12.18
2019-06-27T04:43:23.222Z,11.75
2019-06-27T04:45:50.572Z,12.43
2019-06-27T04:48:17.879Z,11.68
2019-06-27T04:50:45.214Z,11.80
2019-06-27T04:53:12.557Z,12.05
2019-06-27T04:55:39.898Z,10.15
2019-06-27T04:58:07.209Z,9.48
2019-06-27T05:00:34.529Z,8.43
2019-06-27T05:03:01.849Z,9.20
2019-06-27T05:05:29.162Z,8.33
2019-06-27T05:07:56.501Z,7.87
2019-06-27T05:10:23.836Z,7.42
2019-06-27T05:12:51.138Z,7.17
2019-06-27T05:15:18.458Z,6.97
2019-06-27T05:17:45.757Z,8.03
2019-06-27T05:20:13.089Z,7.42
2019-06-27T05:22:40.417Z,7.03
2019-06-27T05:25:07.801Z,7.33
2019-06-27T05:27:35.046Z,7.75
2019-06-27T05:30:09.226Z,7.45
2019-06-27T05:32:31.321Z,7.22
2019-06-27T05:34:58.645Z,7.08
2019-06-27T05:37:25.953Z,7.12
2019-06-27T05:39:53.271Z,7.47
2019-06-27T05:42:20.593Z,5.83
2019-06-27T05:44:47.890Z,6.55
2019-06-27T05:47:15.225Z,5.85
2019-06-27T05:49:42.525Z,7.22
2019-06-27T05:52:09.878Z,7.50
2019-06-27T05:54:37.201Z,7.30
2019-06-27T05:57:04.593Z,9.33
2019-06-27T05:59:31.913Z,7.25
2019-06-27T06:01:59.229Z,7.37
2019-06-27T06:04:26.569Z,7.83
2019-06-27T06:06:53.875Z,7.80
2019-06-27T06:09:21.177Z,7.35
2019-06-27T06:11:48.481Z,7.67
2019-06-27T06:14:15.824Z,8.20
2019-06-27T06:16:44.816Z,7.05
2019-06-27T06:19:12.146Z,7.12
2019-06-27T06:21:39.460Z,7.50
2019-06-27T06:24:06.760Z,5.67
2019-06-27T06:26:34.071Z,7.15
2019-06-27T06:29:01.384Z,6.97
2019-06-27T06:31:28.723Z,6.37
2019-06-27T06:33:56.051Z,5.95
2019-06-27T06:36:23.408Z,5.33
2019-06-27T06:38:50.733Z,5.08
2019-06-27T06:41:18.064Z,5.50
2019-06-27T06:43:45.418Z,5.05
2019-06-27T06:46:12.732Z,5.50
2019-06-27T06:48:40.086Z,4.75
2019-06-27T06:51:07.395Z,4.50
2019-06-27T06:53:34.726Z,5.33
2019-06-27T06:56:02.030Z,4.70
2019-06-27T06:58:29.363Z,4.65
2019-06-27T07:01:01.617Z,4.83
2019-06-27T07:03:25.641Z,4.60
2019-06-27T07:05:52.949Z,4.85
2019-06-27T07:08:20.357Z,4.53
2019-06-27T07:10:47.671Z,3.62
2019-06-27T07:13:15.038Z,4.80
2019-06-27T07:15:42.324Z,5.67
2019-06-27T07:18:09.657Z,3.80
2019-06-27T07:20:36.997Z,4.45
2019-06-27T07:23:04.328Z,4.37
2019-06-27T07:25:31.905Z,5.37
2019-06-27T07:27:59.265Z,4.90
2019-06-27T07:30:26.597Z,5.25
2019-06-27T07:32:53.908Z,4.85
2019-06-27T07:35:21.247Z,5.42
2019-06-27T07:37:48.539Z,5.10
2019-06-27T07:40:15.878Z,6.47
2019-06-27T07:42:43.177Z,6.20
2019-06-27T07:45:10.502Z,5.25
2019-06-27T07:47:37.813Z,5.92
2019-06-27T07:50:06.397Z,6.15
2019-06-27T07:52:33.707Z,5.83
2019-06-27T07:55:01.031Z,6.12
2019-06-27T07:57:28.340Z,5.53
2019-06-27T07:59:55.687Z,5.45
2019-06-27T08:02:23.006Z,5.72
2019-06-27T08:04:50.309Z,4.75
2019-06-27T08:07:21.030Z,5.40
2019-06-27T08:09:46.585Z,6.00
2019-06-27T08:12:13.888Z,5.92
2019-06-27T08:14:41.215Z,5.67
2019-06-27T08:17:08.518Z,4.95
2019-06-27T08:19:35.847Z,6.60
2019-06-27T08:22:03.196Z,5.62
2019-06-27T08:24:34.139Z,5.37
2019-06-27T08:26:59.451Z,5.42
2019-06-27T08:29:26.806Z,5.65
2019-06-27T08:31:54.108Z,4.85
2019-06-27T08:34:21.449Z,4.40
2019-06-27T08:36:48.764Z,3.77
2019-06-27T08:39:16.097Z,3.12
2019-06-27T08:41:43.405Z,3.52
2019-06-27T08:44:10.740Z,3.37
2019-06-27T08:46:38.058Z,3.30
2019-06-27T08:49:05.384Z,3.17
2019-06-27T08:51:32.690Z,3.05
2019-06-27T08:54:00.060Z,4.10
2019-06-27T08:56:27.354Z,4.05
2019-06-27T08:58:54.649Z,4.03
2019-06-27T09:01:22.052Z,3.72
2019-06-27T09:03:49.363Z,3.62
2019-06-27T09:06:16.688Z,2.80
2019-06-27T09:08:44.033Z,3.67
2019-06-27T09:11:11.365Z,2.98
2019-06-27T09:13:38.694Z,2.90
2019-06-27T09:16:06.017Z,2.30
2019-06-27T09:18:33.316Z,2.37
2019-06-27T09:21:00.675Z,2.17
2019-06-27T09:23:28.011Z,2.33
2019-06-27T09:25:55.340Z,2.25
2019-06-27T09:28:22.680Z,2.67
2019-06-27T09:30:50.166Z,1.95
2019-06-27T09:33:17.468Z,1.90
2019-06-27T09:35:44.810Z,2.05
2019-06-27T09:38:12.104Z,1.65
2019-06-27T09:40:39.434Z,2.40
2019-06-27T09:43:06.749Z,2.33
2019-06-27T09:45:34.066Z,1.77
2019-06-27T09:48:01.384Z,1.60
2019-06-27T09:50:28.746Z,1.50
2019-06-27T09:52:56.026Z,1.30
2019-06-27T09:55:23.401Z,1.57
2019-06-27T09:57:50.707Z,1.37
2019-06-27T10:00:18.060Z,1.60
2019-06-27T10:02:45.391Z,1.80
2019-06-27T10:05:12.705Z,1.70
2019-06-27T10:07:40.015Z,1.55
2019-06-27T10:10:07.346Z,1.27
2019-06-27T10:12:42.401Z,1.42
2019-06-27T10:15:04.790Z,1.20
2019-06-27T10:17:32.088Z,1.17
2019-06-27T10:19:59.404Z,1.90
2019-06-27T10:22:26.708Z,1.00
2019-06-27T10:24:54.100Z,1.20
2019-06-27T10:27:21.400Z,1.20
2019-06-27T10:29:48.715Z,1.42
2019-06-27T10:32:16.040Z,1.65
2019-06-27T10:34:43.352Z,1.80
2019-06-27T10:37:10.668Z,1.50
2019-06-27T10:39:37.996Z,1.17
2019-06-27T10:42:05.332Z,1.50
2019-06-27T10:44:32.642Z,1.25
2019-06-27T10:46:59.960Z,1.50
2019-06-27T10:49:27.268Z,1.27
2019-06-27T10:51:54.669Z,1.10
2019-06-27T10:54:21.930Z,1.50
2019-06-27T10:56:49.282Z,1.45
2019-06-27T10:59:16.580Z,1.30
2019-06-27T11:01:43.907Z,1.25
2019-06-27T11:04:11.233Z,1.12
2019-06-27T11:06:38.574Z,1.17
2019-06-27T11:09:05.873Z,0.90
2019-06-27T11:11:33.298Z,1.30
2019-06-27T11:14:00.588Z,0.90
2019-06-27T11:16:27.909Z,1.17
2019-06-27T11:18:55.217Z,1.00
2019-06-27T11:21:22.532Z,1.00
2019-06-27T11:23:49.900Z,0.90
2019-06-27T11:26:17.216Z,1.17
2019-06-27T11:28:44.525Z,0.98
2019-06-27T11:31:11.845Z,1.20
2019-06-27T11:33:39.180Z,1.17
2019-06-27T11:36:06.505Z,1.30
2019-06-27T11:38:33.808Z,0.80
2019-06-27T11:41:01.129Z,0.82
2019-06-27T11:43:28.449Z,0.85
2019-06-27T11:45:55.772Z,1.10
2019-06-27T11:48:23.101Z,1.20
2019-06-27T11:50:50.538Z,0.80
2019-06-27T11:53:17.885Z,0.90
2019-06-27T11:55:45.201Z,1.00
2019-06-27T11:58:12.559Z,1.27
2019-06-27T12:00:39.861Z,1.25
2019-06-27T12:03:07.184Z,1.67
2019-06-27T12:05:34.513Z,1.62
2019-06-27T12:08:01.885Z,2.25
2019-06-27T12:10:29.185Z,1.55
2019-06-27T12:12:56.488Z,1.50
2019-06-27T12:15:23.963Z,1.02
2019-06-27T12:17:51.274Z,1.32
2019-06-27T12:20:18.712Z,1.42
2019-06-27T12:22:46.000Z,1.40
2019-06-27T12:25:13.411Z,0.90
2019-06-27T12:27:40.702Z,1.00
2019-06-27T12:30:08.096Z,0.98
2019-06-27T12:32:50.360Z,1.10
2019-06-27T12:35:05.631Z,0.88
2019-06-27T12:37:32.929Z,1.17
2019-06-27T12:40:00.259Z,0.80
2019-06-27T12:42:32.266Z,0.90
2019-06-27T12:44:56.524Z,0.95
2019-06-27T12:47:23.828Z,0.80
2019-06-27T12:50:02.354Z,0.93
2019-06-27T12:52:20.083Z,0.90
2019-06-27T12:54:47.405Z,0.70
2019-06-27T12:57:14.728Z,1.00
2019-06-27T12:59:42.040Z,0.78
2019-06-27T13:02:11.600Z,0.80
2019-06-27T13:04:38.422Z,0.90
2019-06-27T13:07:05.716Z,0.70
2019-06-27T13:09:33.048Z,0.80
2019-06-27T13:12:00.349Z,0.90
2019-06-27T13:14:27.672Z,0.80
2019-06-27T13:16:54.989Z,0.75
2019-06-27T13:19:22.301Z,0.90
2019-06-27T13:21:49.650Z,0.90
2019-06-27T13:24:16.964Z,0.90
2019-06-27T13:26:44.273Z,0.75
2019-06-27T13:29:11.597Z,0.75
2019-06-27T13:31:38.949Z,0.90
2019-06-27T13:34:06.271Z,0.70
2019-06-27T13:36:33.691Z,1.10
2019-06-27T13:39:01.046Z,0.85
2019-06-27T13:41:28.350Z,0.80
2019-06-27T13:43:55.641Z,0.80
2019-06-27T13:46:22.964Z,1.52
2019-06-27T13:48:50.320Z,0.80
2019-06-27T13:51:17.624Z,0.62
2019-06-27T13:53:44.930Z,0.93
2019-06-27T13:56:12.344Z,1.02
2019-06-27T13:58:39.656Z,0.62
2019-06-27T14:01:10.667Z,0.60
2019-06-27T14:03:48.582Z,0.60
2019-06-27T14:06:04.858Z,0.70
2019-06-27T14:08:32.180Z,0.60
2019-06-27T14:10:59.524Z,0.60
2019-06-27T14:13:26.844Z,0.60
2019-06-27T14:15:54.144Z,0.60
2019-06-27T14:18:21.471Z,0.70
2019-06-27T14:20:48.772Z,0.62
2019-06-27T14:23:16.088Z,0.88
2019-06-27T14:25:43.428Z,0.80
2019-06-27T14:28:10.740Z,0.90
2019-06-27T14:30:38.045Z,0.80
2019-06-27T14:33:05.457Z,0.80
2019-06-27T14:35:32.692Z,0.70
2019-06-27T14:38:00.021Z,0.85
2019-06-27T14:40:27.412Z,0.68
2019-06-27T14:42:54.758Z,0.80
2019-06-27T14:45:22.058Z,0.80
2019-06-27T14:47:49.372Z,0.80
2019-06-27T14:50:16.752Z,0.80
2019-06-27T14:52:44.157Z,0.80
2019-06-27T14:55:11.460Z,0.80
2019-06-27T14:57:38.858Z,0.90
2019-06-27T15:00:06.599Z,1.00
2019-06-27T15:02:33.907Z,0.80
2019-06-27T15:05:01.236Z,0.60
2019-06-27T15:07:28.556Z,0.80
2019-06-27T15:09:55.874Z,1.05
2019-06-27T15:12:23.193Z,0.85
2019-06-27T15:14:50.813Z,1.02
2019-06-27T15:17:18.108Z,0.80
2019-06-27T15:19:45.449Z,0.80
2019-06-27T15:22:12.754Z,0.80
2019-06-27T15:24:40.110Z,0.80
2019-06-27T15:27:07.388Z,1.20
2019-06-27T15:29:34.708Z,1.10
2019-06-27T15:32:02.112Z,0.90
2019-06-27T15:34:29.461Z,0.90
2019-06-27T15:36:56.776Z,1.22
2019-06-27T15:39:24.100Z,0.75
2019-06-27T15:41:51.402Z,0.65
2019-06-27T15:44:20.763Z,0.90
2019-06-27T15:46:47.680Z,0.95
2019-06-27T15:49:15.081Z,1.00
2019-06-27T15:51:42.387Z,0.90
2019-06-27T15:54:09.710Z,1.07
2019-06-27T15:56:37.016Z,0.88
2019-06-27T15:59:04.419Z,1.05
2019-06-27T16:01:31.712Z,0.93
2019-06-27T16:03:59.056Z,0.90
2019-06-27T16:06:26.404Z,1.00
2019-06-27T16:08:53.724Z,0.90
2019-06-27T16:11:21.106Z,0.78
2019-06-27T16:13:48.450Z,0.80
2019-06-27T16:16:15.767Z,0.70
2019-06-27T16:18:43.086Z,0.75
2019-06-27T16:21:10.464Z,0.82
2019-06-27T16:23:37.798Z,0.88
2019-06-27T16:26:05.089Z,0.80
2019-06-27T16:28:32.413Z,0.85
2019-06-27T16:30:59.718Z,0.80
2019-06-27T16:33:27.052Z,0.72
2019-06-27T16:35:54.498Z,0.70
2019-06-27T16:38:21.867Z,0.90
2019-06-27T16:40:49.201Z,0.90
2019-06-27T16:43:16.456Z,0.70
2019-06-27T16:45:43.860Z,0.80
2019-06-27T16:48:11.323Z,0.60
2019-06-27T16:50:38.634Z,0.70
2019-06-27T16:53:05.931Z,0.70
2019-06-27T16:55:33.734Z,0.60
2019-06-27T16:58:01.051Z,0.60
2019-06-27T17:00:28.375Z,0.70
2019-06-27T17:02:55.680Z,0.80
2019-06-27T17:05:23.143Z,0.65
2019-06-27T17:07:50.482Z,0.70
2019-06-27T17:10:18.031Z,0.70
2019-06-27T17:12:45.330Z,0.75
2019-06-27T17:15:12.658Z,1.00
2019-06-27T17:17:40.032Z,1.32
2019-06-27T17:20:07.361Z,1.22
2019-06-27T17:22:34.704Z,1.40
2019-06-27T17:25:02.044Z,1.67
2019-06-27T17:27:29.362Z,1.98
2019-06-27T17:29:56.708Z,1.82
2019-06-27T17:32:24.042Z,1.62
2019-06-27T17:34:51.385Z,1.50
2019-06-27T17:37:18.995Z,1.42
2019-06-27T17:39:46.333Z,1.20
2019-06-27T17:42:13.634Z,0.85
2019-06-27T17:44:40.960Z,1.00
2019-06-27T17:47:08.272Z,0.80
2019-06-27T17:49:35.608Z,0.80
2019-06-27T17:52:02.909Z,0.80
2019-06-27T17:54:30.242Z,0.70
2019-06-27T17:56:57.558Z,0.78
2019-06-27T17:59:24.926Z,0.80
2019-06-27T18:01:52.229Z,0.80
2019-06-27T18:04:19.562Z,0.60
2019-06-27T18:06:46.862Z,0.80
2019-06-27T18:09:14.222Z,0.82
2019-06-27T18:11:41.511Z,0.70
2019-06-27T18:14:08.875Z,0.65
2019-06-27T18:16:36.240Z,0.80
2019-06-27T18:19:03.565Z,0.68
2019-06-27T18:21:30.879Z,0.80
2019-06-27T18:23:58.219Z,0.72
2019-06-27T18:26:25.608Z,0.78
2019-06-27T18:28:52.900Z,0.72
2019-06-27T18:31:20.241Z,0.80
2019-06-27T18:33:47.552Z,0.75
2019-06-27T18:36:14.875Z,0.70
2019-06-27T18:38:42.214Z,0.60
2019-06-27T18:41:12.535Z,0.70
2019-06-27T18:43:38.489Z,1.00
2019-06-27T18:46:05.835Z,0.78
2019-06-27T18:48:33.271Z,0.93
2019-06-27T18:51:00.593Z,0.82
2019-06-27T18:53:27.958Z,0.78
2019-06-27T18:55:55.298Z,1.05
2019-06-27T18:58:22.601Z,0.70
2019-06-27T19:00:49.982Z,0.70
2019-06-27T19:03:17.306Z,0.85
2019-06-27T19:05:44.634Z,0.90
2019-06-27T19:08:11.959Z,0.98
2019-06-27T19:10:39.279Z,0.95
2019-06-27T19:13:06.685Z,0.80
2019-06-27T19:15:33.976Z,1.10
2019-06-27T19:18:01.454Z,0.70
2019-06-27T19:20:36.409Z,0.78
2019-06-27T19:23:11.379Z,0.88
2019-06-27T19:25:40.636Z,0.90
2019-06-27T19:28:07.918Z,0.90
2019-06-27T19:30:35.216Z,0.75
2019-06-27T19:33:02.543Z,0.80
2019-06-27T19:35:29.871Z,1.05
2019-06-27T19:38:01.848Z,0.98
2019-06-27T19:40:26.159Z,1.00
2019-06-27T19:42:53.495Z,1.00
2019-06-27T19:45:20.815Z,1.00
2019-06-27T19:47:48.161Z,0.90
2019-06-27T19:50:15.532Z,0.90
2019-06-27T19:52:42.921Z,1.00
2019-06-27T19:55:10.239Z,1.00
2019-06-27T19:57:37.598Z,1.12
2019-06-27T20:00:05.413Z,1.12
2019-06-27T20:02:32.757Z,1.22
2019-06-27T20:05:00.050Z,1.02
2019-06-27T20:07:27.348Z,1.10
2019-06-27T20:09:54.874Z,0.93
2019-06-27T20:12:22.346Z,0.90
2019-06-27T20:14:49.687Z,0.93
2019-06-27T20:17:17.024Z,0.85
2019-06-27T20:19:44.327Z,1.20
2019-06-27T20:22:12.485Z,1.05
2019-06-27T20:24:39.791Z,1.02
2019-06-27T20:27:07.341Z,0.90
2019-06-27T20:29:34.633Z,0.90
2019-06-27T20:32:02.059Z,1.10
2019-06-27T20:34:29.382Z,0.90
2019-06-27T20:36:56.730Z,0.90
2019-06-27T20:39:24.114Z,1.20
2019-06-27T20:41:51.449Z,0.90
2019-06-27T20:44:18.805Z,1.20
2019-06-27T20:46:46.099Z,1.10
2019-06-27T20:49:13.407Z,1.20
2019-06-27T20:51:40.724Z,1.02
2019-06-27T20:54:08.107Z,1.20
2019-06-27T20:56:35.497Z,1.00
2019-06-27T20:59:02.784Z,1.40
2019-06-27T21:01:31.713Z,0.98
2019-06-27T21:03:59.211Z,1.00
2019-06-27T21:06:26.535Z,1.10
2019-06-27T21:08:53.864Z,1.15
2019-06-27T21:11:21.219Z,1.00
2019-06-27T21:13:48.619Z,1.55
2019-06-27T21:16:15.980Z,1.25
2019-06-27T21:18:43.296Z,1.70
2019-06-27T21:21:10.612Z,1.20
2019-06-27T21:23:37.932Z,1.17
2019-06-27T21:26:05.235Z,1.45
2019-06-27T21:28:32.563Z,1.10
2019-06-27T21:30:59.864Z,1.40
2019-06-27T21:33:27.187Z,1.42
2019-06-27T21:35:54.514Z,1.07
2019-06-27T21:38:21.838Z,1.10
2019-06-27T21:40:49.128Z,1.20
2019-06-27T21:43:16.446Z,1.25
2019-06-27T21:45:43.774Z,1.37
2019-06-27T21:48:11.079Z,1.00
2019-06-27T21:50:38.400Z,1.22
2019-06-27T21:53:05.731Z,1.45
2019-06-27T21:55:33.055Z,1.22
2019-06-27T21:58:00.411Z,1.02
2019-06-27T22:00:27.760Z,1.12
2019-06-27T22:02:55.055Z,1.15
2019-06-27T22:05:22.367Z,1.12
2019-06-27T22:07:53.315Z,0.90
2019-06-27T22:10:18.886Z,1.42
2019-06-27T22:12:46.266Z,1.10
2019-06-27T22:15:13.668Z,1.00
2019-06-27T22:17:40.963Z,1.42
2019-06-27T22:20:15.208Z,1.32
2019-06-27T22:22:37.412Z,1.40
2019-06-27T22:25:05.859Z,1.30
2019-06-27T22:27:33.124Z,1.22
2019-06-27T22:30:00.451Z,1.20
2019-06-27T22:32:27.755Z,1.20
2019-06-27T22:34:55.157Z,1.10
2019-06-27T22:37:24.548Z,1.10
2019-06-27T22:40:10.363Z,1.22
2019-06-27T22:42:55.859Z,1.02
2019-06-27T22:45:41.018Z,1.15
2019-06-27T22:48:13.574Z,1.40
2019-06-27T22:50:42.717Z,1.50
2019-06-27T22:53:11.659Z,1.42
2019-06-27T22:55:39.050Z,1.57
2019-06-27T22:58:06.349Z,1.32
2019-06-27T23:00:33.687Z,1.12
2019-06-27T23:03:00.981Z,1.35
2019-06-27T23:05:28.304Z,1.32
2019-06-27T23:07:55.611Z,1.27
2019-06-27T23:10:22.922Z,1.50
2019-06-27T23:12:50.251Z,1.60
2019-06-27T23:15:17.574Z,1.55
2019-06-27T23:17:44.895Z,1.70
2019-06-27T23:20:12.203Z,1.80
2019-06-27T23:22:39.513Z,1.90
2019-06-27T23:25:06.808Z,1.72
2019-06-27T23:27:34.228Z,1.85
2019-06-27T23:30:01.625Z,1.50
2019-06-27T23:32:29.193Z,1.52
2019-06-27T23:34:56.481Z,1.62
2019-06-27T23:37:23.813Z,1.75
2019-06-27T23:39:51.213Z,1.98
2019-06-27T23:42:18.533Z,1.32
2019-06-27T23:44:45.828Z,1.52
2019-06-27T23:47:13.231Z,1.82
2019-06-27T23:49:40.591Z,1.80
2019-06-27T23:52:07.915Z,1.82
2019-06-27T23:54:35.219Z,1.90
2019-06-27T23:57:02.542Z,1.77
2019-06-27T23:59:29.900Z,2.27
